Time;durP1;ratioP1;P1;durP2;ratioP2;P2;SDS_P1;SDS_P2;PMS_P1;PMS_P2;Temp;Humidity;BMP_temperature;BMP_pressure;BME280_temperature;BME280_humidity;BME280_pressure;Samples;Min_cycle;Max_cycle;Signal;HPM_P1;HPM_P2
2022/10/30 00:00:30;;;;;;;6.83;3.67;;;;;;;11.98;81.21;95231.34;5054398;28;20224;-60
2022/10/30 00:02:55;;;;;;;3.70;2.87;;;;;;;11.95;81.52;95231.56;5073510;28;20195;-62
2022/10/30 00:05:21;;;;;;;7.20;4.03;;;;;;;12.07;81.69;95228.03;5072173;28;20235;-64
2022/10/30 00:07:47;;;;;;;7.63;4.27;;;;;;;12.00;81.73;95225.16;5072650;28;20254;-60
2022/10/30 00:10:13;;;;;;;8.37;4.50;;;;;;;11.90;82.56;95209.00;5073312;28;20217;-61
2022/10/30 00:12:39;;;;;;;7.83;4.03;;;;;;;11.86;83.58;95196.66;5072928;28;20204;-59
2022/10/30 00:15:04;;;;;;;5.37;4.27;;;;;;;11.94;82.29;95222.31;5072091;28;20209;-59
2022/10/30 00:17:30;;;;;;;8.93;4.43;;;;;;;11.84;82.56;95211.25;5072456;28;20245;-60
2022/10/30 00:19:55;;;;;;;5.20;3.57;;;;;;;11.86;82.96;95206.84;5071888;28;20215;-59
2022/10/30 00:22:21;;;;;;;9.60;4.03;;;;;;;11.87;82.91;95214.34;5071877;28;20609;-60
2022/10/30 00:24:46;;;;;;;7.33;4.43;;;;;;;11.92;82.81;95222.44;5073262;28;20193;-60
2022/10/30 00:27:12;;;;;;;6.30;4.20;;;;;;;12.10;80.59;95250.72;5038019;28;20425;-60
2022/10/30 00:29:37;;;;;;;6.50;4.43;;;;;;;11.99;81.31;95245.69;5071693;28;20203;-60
2022/10/30 00:32:03;;;;;;;10.97;4.53;;;;;;;11.93;81.20;95235.97;5054255;28;20227;-61
2022/10/30 00:34:28;;;;;;;6.20;4.40;;;;;;;11.88;82.30;95220.28;5071882;28;20205;-60
2022/10/30 00:36:55;;;;;;;7.63;5.07;;;;;;;11.64;83.16;95207.72;5071480;28;20729;-61
2022/10/30 00:39:20;;;;;;;9.80;5.40;;;;;;;11.64;83.88;95189.88;5053563;28;20208;-60
2022/10/30 00:41:46;;;;;;;9.00;5.67;;;;;;;11.88;82.11;95220.28;5071740;28;20250;-61
2022/10/30 00:44:51;;;;;;;9.00;5.33;;;;;;;11.77;81.49;95224.50;5071570;28;20714;-60
2022/10/30 00:47:22;;;;;;;7.67;5.40;;;;;;;11.73;81.02;95235.03;5029589;28;20238;-60
2022/10/30 00:50:11;;;;;;;12.20;5.87;;;;;;;11.73;81.44;95233.31;5029518;28;20297;-60
2022/10/30 00:52:44;;;;;;;8.10;4.97;;;;;;;11.68;82.50;95207.38;5029966;28;20236;-60
2022/10/30 00:55:15;;;;;;;8.30;5.37;;;;;;;11.68;84.00;95192.09;5071663;28;20204;-64
2022/10/30 00:57:41;;;;;;;12.57;4.70;;;;;;;11.78;83.66;95199.81;5071698;28;20185;-61
2022/10/30 01:00:09;;;;;;;5.80;4.87;;;;;;;11.83;83.37;95205.34;5071274;28;20212;-60
2022/10/30 01:02:35;;;;;;;10.00;4.63;;;;;;;11.79;83.26;95198.88;5071764;28;20188;-60
2022/10/30 01:05:02;;;;;;;8.80;4.60;;;;;;;11.96;82.80;95217.91;5053375;28;20266;-59
2022/10/30 01:07:27;;;;;;;8.17;5.20;;;;;;;11.98;82.69;95210.94;5071562;28;20197;-59
2022/10/30 01:09:53;;;;;;;7.33;5.00;;;;;;;11.98;82.79;95206.63;5087254;23;20318;-60
2022/10/30 01:12:18;;;;;;;8.57;4.90;;;;;;;12.03;82.54;95207.09;5091369;28;20188;-59
2022/10/30 01:14:50;;;;;;;16.67;9.90;;;;;;;12.12;81.69;95223.38;5091495;28;20593;-63
2022/10/30 01:17:42;;;;;;;32.57;19.37;;;;;;;11.78;81.71;95208.25;5091585;28;20184;-61
2022/10/30 01:20:32;;;;;;;26.93;15.07;;;;;;;11.47;83.49;95163.22;5091763;28;20247;-60
2022/10/30 01:23:24;;;;;;;12.23;7.07;;;;;;;11.15;84.11;95152.25;5092153;28;20245;-59
2022/10/30 01:26:27;;;;;;;7.03;4.23;;;;;;;10.94;85.50;95131.88;5091516;28;20216;-61
2022/10/30 01:29:14;;;;;;;7.77;4.43;;;;;;;10.63;87.77;95103.84;5091064;28;20296;-63
2022/10/30 01:31:45;;;;;;;7.93;4.37;;;;;;;10.54;88.36;95089.31;5090989;28;20263;-63
2022/10/30 01:34:36;;;;;;;6.93;4.07;;;;;;;10.53;87.92;95113.09;5072911;28;20223;-63
2022/10/30 01:37:08;;;;;;;6.83;4.53;;;;;;;10.50;87.80;95113.34;5091621;28;20184;-61
2022/10/30 01:39:37;;;;;;;6.10;3.90;;;;;;;10.53;88.86;95108.03;5091475;28;20646;-61
2022/10/30 01:42:49;;;;;;;8.20;4.27;;;;;;;10.83;88.27;95133.59;5091511;28;20199;-60
2022/10/30 01:45:31;;;;;;;7.50;4.13;;;;;;;10.83;86.47;95148.88;5081296;28;20248;-61
2022/10/30 01:48:01;;;;;;;5.43;3.70;;;;;;;10.96;85.66;95160.53;5090892;28;20542;-60
2022/10/30 01:50:38;;;;;;;7.13;4.30;;;;;;;10.95;85.41;95158.91;5091020;28;20208;-59
2022/10/30 01:53:22;;;;;;;6.33;4.10;;;;;;;10.74;87.22;95130.06;5091254;28;20544;-63
2022/10/30 01:55:56;;;;;;;4.83;4.13;;;;;;;10.74;86.99;95142.78;5072969;28;20208;-60
2022/10/30 01:58:35;;;;;;;7.67;4.43;;;;;;;10.80;86.46;95141.50;5090881;28;20200;-61
2022/10/30 02:01:02;;;;;;;8.47;4.40;;;;;;;10.94;86.14;95151.41;5090490;28;20211;-60
2022/10/30 02:03:28;;;;;;;7.27;4.67;;;;;;;10.76;86.52;95137.56;5090422;28;20199;-59
2022/10/30 02:05:53;;;;;;;7.27;4.57;;;;;;;10.82;87.40;95127.75;5090871;28;20212;-60
2022/10/30 02:08:21;;;;;;;7.17;4.40;;;;;;;10.84;87.23;95135.25;5091325;28;21215;-63
2022/10/30 02:10:50;;;;;;;8.60;4.40;;;;;;;10.95;86.55;95148.72;5090882;28;20212;-61
2022/10/30 02:13:15;;;;;;;6.43;4.97;;;;;;;11.01;86.77;95137.25;5090687;28;20188;-60
2022/10/30 02:15:42;;;;;;;6.27;4.70;;;;;;;10.99;87.03;95141.66;5073077;28;20206;-64
2022/10/30 02:18:08;;;;;;;7.53;4.53;;;;;;;11.06;86.99;95135.19;5090797;28;20214;-60
2022/10/30 02:20:34;;;;;;;6.43;4.60;;;;;;;11.28;84.62;95178.34;5091570;28;20264;-60
2022/10/30 02:22:59;;;;;;;9.83;4.63;;;;;;;11.07;85.86;95156.34;5094553;28;20188;-61
2022/10/30 02:25:25;;;;;;;7.43;4.27;;;;;;;11.07;86.17;95151.25;5093991;28;20215;-59
2022/10/30 02:27:56;;;;;;;7.23;5.20;;;;;;;11.08;86.04;95151.13;5093826;28;20283;-60
2022/10/30 02:30:21;;;;;;;8.67;5.17;;;;;;;11.21;85.66;95159.41;5094485;28;20230;-62
2022/10/30 02:32:47;;;;;;;6.43;4.57;;;;;;;11.37;84.79;95164.09;5094083;28;20265;-63
2022/10/30 02:35:12;;;;;;;8.17;4.97;;;;;;;11.34;84.31;95184.69;5063732;22;20241;-60
2022/10/30 02:37:38;;;;;;;8.60;5.10;;;;;;;11.18;85.64;95167.28;5034349;28;20193;-60
2022/10/30 02:40:07;;;;;;;7.73;5.47;;;;;;;10.91;86.74;95136.38;5033861;28;20707;-60
2022/10/30 02:42:33;;;;;;;8.33;5.63;;;;;;;10.88;86.74;95142.53;5016167;28;20277;-60
2022/10/30 02:44:59;;;;;;;8.00;5.90;;;;;;;10.61;88.77;95103.97;5034751;28;20211;-61
2022/10/30 02:47:25;;;;;;;10.17;5.90;;;;;;;10.27;93.45;95043.97;5033838;28;20194;-61
2022/10/30 02:49:50;;;;;;;11.97;7.10;;;;;;;10.43;93.60;95081.69;5033650;28;20696;-61
2022/10/30 02:52:16;;;;;;;10.47;6.50;;;;;;;10.50;93.94;95093.03;5033580;28;20676;-61
2022/10/30 02:54:41;;;;;;;8.57;5.63;;;;;;;10.62;92.16;95115.78;5033570;28;20785;-61
2022/10/30 02:57:08;;;;;;;9.03;6.40;;;;;;;10.70;91.09;95128.69;5015573;28;20239;-59
2022/10/30 02:59:34;;;;;;;10.03;6.07;;;;;;;10.77;90.23;95145.06;5033409;28;20263;-61
2022/10/30 03:01:59;;;;;;;8.63;5.97;;;;;;;10.55;91.95;95121.41;5033962;28;20187;-63
2022/10/30 03:04:25;;;;;;;11.63;6.90;;;;;;;10.58;92.66;95119.47;5033224;28;20218;-63
2022/10/30 03:06:50;;;;;;;11.67;6.27;;;;;;;10.63;91.96;95131.81;5015531;28;20649;-64
2022/10/30 03:09:16;;;;;;;11.40;6.17;;;;;;;10.68;91.34;95142.44;5033782;28;20218;-61
2022/10/30 03:11:43;;;;;;;8.33;6.23;;;;;;;10.71;91.92;95140.47;5033292;28;20189;-61
2022/10/30 03:14:08;;;;;;;11.30;7.13;;;;;;;10.90;89.84;95167.84;5033355;28;20218;-61
2022/10/30 03:16:35;;;;;;;9.40;6.53;;;;;;;10.61;91.61;95138.75;5033377;28;20196;-60
2022/10/30 03:19:01;;;;;;;12.93;6.50;;;;;;;10.71;92.56;95144.75;5033013;28;20215;-60
2022/10/30 03:21:27;;;;;;;7.83;5.80;;;;;;;10.79;91.92;95155.13;5033028;28;20260;-61
2022/10/30 03:23:53;;;;;;;9.97;6.77;;;;;;;10.83;91.41;95161.59;5032967;28;20241;-62
2022/10/30 03:26:20;;;;;;;12.57;7.63;;;;;;;11.10;88.78;95196.78;5032849;28;20657;-63
2022/10/30 03:28:46;;;;;;;16.07;7.57;;;;;;;10.97;87.00;95218.09;5015268;28;20264;-60
2022/10/30 03:31:15;;;;;;;12.57;6.93;;;;;;;10.77;87.82;95201.03;5032728;28;20194;-60
2022/10/30 03:33:40;;;;;;;11.70;7.13;;;;;;;10.43;90.04;95163.84;5015258;28;20204;-59
2022/10/30 03:36:07;;;;;;;10.80;7.13;;;;;;;10.22;91.69;95131.63;5032853;28;20629;-60
2022/10/30 03:38:33;;;;;;;9.53;5.93;;;;;;;10.29;92.34;95132.78;5032670;28;20284;-58
2022/10/30 03:40:59;;;;;;;12.30;6.33;;;;;;;10.30;92.46;95135.22;5032600;28;20281;-60
2022/10/30 03:43:25;;;;;;;12.57;7.53;;;;;;;10.32;91.61;95156.25;5032647;28;20268;-60
2022/10/30 03:45:53;;;;;;;13.40;7.33;;;;;;;10.21;92.81;95140.16;5032849;28;20206;-60
2022/10/30 03:48:20;;;;;;;11.73;7.07;;;;;;;10.43;91.52;95145.25;5032794;28;20205;-60
2022/10/30 03:50:46;;;;;;;12.87;7.97;;;;;;;10.47;90.91;95149.97;5032742;28;20264;-60
2022/10/30 03:53:12;;;;;;;9.97;7.33;;;;;;;10.43;92.49;95130.00;5032345;28;20190;-60
2022/10/30 03:55:38;;;;;;;17.73;8.13;;;;;;;10.45;93.26;95141.66;5032628;28;20617;-61
2022/10/30 03:58:05;;;;;;;9.03;6.30;;;;;;;10.63;91.68;95155.50;5033032;28;20278;-61
2022/10/30 04:00:31;;;;;;;12.20;6.87;;;;;;;10.77;89.55;95167.97;5032413;28;20214;-62
2022/10/30 04:02:57;;;;;;;13.83;7.40;;;;;;;10.66;90.33;95164.63;4998515;28;20213;-61
2022/10/30 04:05:23;;;;;;;9.47;6.87;;;;;;;10.70;89.57;95173.66;5032848;28;20236;-61
2022/10/30 04:07:55;;;;;;;13.00;7.00;;;;;;;10.48;90.44;95158.41;5032311;28;20221;-61
2022/10/30 04:10:20;;;;;;;12.30;7.10;;;;;;;10.43;90.86;95147.78;5032240;28;20308;-61
2022/10/30 04:12:46;;;;;;;11.73;7.30;;;;;;;10.40;90.31;95148.03;5032206;28;20613;-61
2022/10/30 04:15:11;;;;;;;13.13;6.77;;;;;;;10.28;91.55;95138.78;5032762;28;20305;-59
2022/10/30 04:17:37;;;;;;;10.57;7.27;;;;;;;10.30;91.06;95142.84;5032329;28;20182;-61
2022/10/30 04:20:02;;;;;;;12.83;6.97;;;;;;;10.14;92.92;95125.38;5014927;28;20221;-63
2022/10/30 04:22:28;;;;;;;13.73;7.93;;;;;;;10.27;92.60;95132.09;5067104;23;20260;-64
2022/10/30 04:24:53;;;;;;;11.73;7.30;;;;;;;10.20;93.37;95124.09;5092308;28;20640;-65
2022/10/30 04:27:19;;;;;;;9.07;7.17;;;;;;;10.26;93.09;95133.03;5092191;28;20188;-64
2022/10/30 04:29:45;;;;;;;12.60;7.13;;;;;;;10.33;92.59;95136.69;5092203;28;20241;-63
2022/10/30 04:32:12;;;;;;;14.20;7.17;;;;;;;10.31;92.64;95141.09;5092428;28;20244;-64
2022/10/30 04:34:38;;;;;;;12.53;7.47;;;;;;;10.36;92.15;95142.38;5092024;28;20215;-63
2022/10/30 04:37:07;;;;;;;10.50;7.23;;;;;;;10.52;91.11;95157.25;5092620;28;20246;-59
2022/10/30 04:39:33;;;;;;;10.77;7.53;;;;;;;10.72;89.76;95184.50;5092418;28;20222;-61
2022/10/30 04:41:58;;;;;;;11.73;7.23;;;;;;;10.69;89.85;95175.38;5090999;28;20196;-63
2022/10/30 04:44:24;;;;;;;12.23;7.67;;;;;;;10.34;91.20;95164.56;5089735;28;20583;-60
2022/10/30 04:46:49;;;;;;;10.87;7.33;;;;;;;10.26;92.19;95148.25;5107717;28;20192;-63
2022/10/30 04:49:15;;;;;;;16.17;7.77;;;;;;;10.19;93.57;95144.56;5092216;28;20208;-61
2022/10/30 04:51:40;;;;;;;11.43;7.40;;;;;;;10.06;94.46;95134.47;5092158;28;20295;-63
2022/10/30 04:54:06;;;;;;;13.67;7.30;;;;;;;9.99;95.22;95133.31;5092466;28;20239;-61
2022/10/30 04:56:31;;;;;;;16.60;7.77;;;;;;;10.12;94.27;95147.56;5092783;28;20198;-60
2022/10/30 04:58:58;;;;;;;16.10;7.43;;;;;;;10.09;94.60;95137.59;5091657;28;20204;-61
2022/10/30 05:01:24;;;;;;;11.93;7.07;;;;;;;10.34;93.20;95159.47;5091833;28;20622;-61
2022/10/30 05:03:49;;;;;;;9.57;7.00;;;;;;;10.27;92.97;95173.56;5092003;28;20239;-61
2022/10/30 05:06:15;;;;;;;15.17;8.60;;;;;;;10.02;92.93;95164.38;5091316;28;20237;-60
2022/10/30 05:08:40;;;;;;;13.20;7.97;;;;;;;9.84;93.93;95154.75;5107650;28;20191;-60
2022/10/30 05:11:05;;;;;;;15.03;8.07;;;;;;;9.65;94.52;95144.34;5091839;28;20188;-60
2022/10/30 05:13:31;;;;;;;17.70;8.63;;;;;;;9.46;97.31;95124.59;5092106;28;20188;-61
2022/10/30 05:15:57;;;;;;;14.27;8.00;;;;;;;9.27;98.52;95124.31;5092007;28;20184;-59
2022/10/30 05:18:22;;;;;;;11.70;8.17;;;;;;;9.33;99.11;95141.63;5092638;28;20192;-59
2022/10/30 05:20:47;;;;;;;14.20;7.77;;;;;;;9.15;100.00;95142.94;5092266;28;20314;-62
2022/10/30 05:23:13;;;;;;;10.80;6.87;;;;;;;9.24;100.00;95158.31;5091086;28;20191;-61
2022/10/30 05:25:38;;;;;;;11.20;6.60;;;;;;;9.14;100.00;95159.06;5092192;28;20576;-60
2022/10/30 05:28:05;;;;;;;12.87;6.93;;;;;;;9.01;100.00;95146.44;5093330;28;20642;-60
2022/10/30 05:30:33;;;;;;;14.60;6.33;;;;;;;8.99;100.00;95152.53;5091812;28;20212;-61
2022/10/30 05:33:01;;;;;;;10.50;6.10;;;;;;;8.98;100.00;95150.91;5091510;28;20207;-62
2022/10/30 05:35:27;;;;;;;9.37;6.47;;;;;;;8.89;100.00;95164.22;5090982;28;20208;-60
2022/10/30 05:37:53;;;;;;;9.80;6.23;;;;;;;9.11;100.00;95187.97;5091480;28;20202;-60
2022/10/30 05:40:18;;;;;;;10.70;6.33;;;;;;;9.02;100.00;95208.13;5091470;28;20212;-61
2022/10/30 05:42:47;;;;;;;9.63;6.10;;;;;;;8.99;100.00;95209.13;5091708;28;20198;-60
2022/10/30 05:45:14;;;;;;;12.90;7.40;;;;;;;8.85;100.00;95198.31;5090758;28;20261;-61
2022/10/30 05:47:39;;;;;;;12.47;6.87;;;;;;;9.03;100.00;95199.59;5090717;28;20223;-60
2022/10/30 05:50:05;;;;;;;11.77;6.50;;;;;;;9.25;100.00;95207.31;5089338;28;20234;-59
2022/10/30 05:52:31;;;;;;;11.67;6.80;;;;;;;9.42;100.00;95224.69;5090940;28;20270;-59
2022/10/30 05:54:56;;;;;;;9.57;6.33;;;;;;;9.55;100.00;95230.53;5092390;28;20756;-59
2022/10/30 05:57:22;;;;;;;14.20;7.60;;;;;;;9.61;99.79;95226.72;5095427;28;20196;-62
2022/10/30 05:59:47;;;;;;;12.37;7.17;;;;;;;9.57;98.31;95236.28;5094302;28;20212;-62
2022/10/30 06:02:13;;;;;;;10.23;6.67;;;;;;;9.59;98.86;95219.22;5094734;28;20267;-63
2022/10/30 06:04:38;;;;;;;13.53;8.43;;;;;;;9.74;97.43;95243.50;5094796;28;20208;-61
2022/10/30 06:07:03;;;;;;;13.33;7.73;;;;;;;9.86;95.53;95257.03;5093139;28;20184;-60
2022/10/30 06:09:29;;;;;;;11.77;7.83;;;;;;;9.78;95.93;95239.81;5094283;28;20570;-61
2022/10/30 06:11:54;;;;;;;12.57;7.87;;;;;;;9.80;96.63;95234.63;5094078;28;20685;-62
2022/10/30 06:14:20;;;;;;;13.33;7.80;;;;;;;9.79;97.99;95225.41;5094192;28;20290;-64
2022/10/30 06:16:45;;;;;;;14.70;7.53;;;;;;;9.93;98.13;95223.47;5094220;28;20196;-64
2022/10/30 06:19:10;;;;;;;13.30;7.77;;;;;;;9.95;97.66;95228.44;5094178;28;20204;-64
2022/10/30 06:21:36;;;;;;;9.67;6.37;;;;;;;10.02;97.19;95234.69;5094032;28;20294;-63
2022/10/30 06:24:01;;;;;;;11.07;6.47;;;;;;;10.22;96.09;95235.81;5094177;28;20282;-64
2022/10/30 06:26:27;;;;;;;9.30;6.57;;;;;;;10.28;94.06;95263.31;5094381;28;20660;-60
2022/10/30 06:28:52;;;;;;;10.23;6.10;;;;;;;10.16;94.55;95243.88;5094414;28;20207;-60
2022/10/30 06:31:17;;;;;;;9.70;5.37;;;;;;;10.26;93.61;95267.69;5094056;28;20259;-61
2022/10/30 06:33:43;;;;;;;7.73;5.30;;;;;;;10.26;94.12;95258.31;5093984;28;20680;-61
2022/10/30 06:36:08;;;;;;;9.30;6.43;;;;;;;10.22;95.77;95238.34;5093785;28;20188;-61
2022/10/30 06:38:34;;;;;;;9.20;5.97;;;;;;;10.34;94.90;95253.50;5109719;28;20195;-60
2022/10/30 06:40:59;;;;;;;10.00;6.20;;;;;;;10.46;93.12;95269.56;5093825;28;20677;-59
2022/10/30 06:43:24;;;;;;;9.57;6.13;;;;;;;10.48;94.53;95249.94;5109664;28;20722;-59
2022/10/30 06:45:50;;;;;;;10.80;6.30;;;;;;;10.64;94.03;95263.09;5093557;28;20244;-60
2022/10/30 06:48:17;;;;;;;20.80;12.30;;;;;;;10.69;93.75;95258.47;5094183;28;20192;-61
2022/10/30 06:50:43;;;;;;;17.73;10.63;;;;;;;10.91;92.29;95278.81;5094805;28;20697;-63
2022/10/30 06:53:08;;;;;;;14.07;6.60;;;;;;;11.09;91.00;95299.50;5093946;28;20188;-63
2022/10/30 06:55:34;;;;;;;10.60;6.77;;;;;;;11.35;89.44;95324.56;5109171;28;20645;-63
2022/10/30 06:57:59;;;;;;;11.87;8.03;;;;;;;11.17;91.30;95295.44;5092388;28;20192;-63
2022/10/30 07:00:25;;;;;;;12.70;7.90;;;;;;;11.22;91.68;95278.09;5109400;28;20624;-60
2022/10/30 07:02:58;;;;;;;10.37;7.03;;;;;;;11.57;90.32;95304.16;5093849;28;20592;-61
2022/10/30 07:05:31;;;;;;;14.07;7.83;;;;;;;11.67;89.36;95311.94;5093513;28;20251;-61
2022/10/30 07:07:57;;;;;;;18.83;7.43;;;;;;;11.55;89.39;95307.78;5108530;28;20574;-59
2022/10/30 07:10:22;;;;;;;14.10;7.33;;;;;;;11.48;89.29;95304.88;5093312;28;20207;-60
2022/10/30 07:12:55;;;;;;;11.17;7.40;;;;;;;11.60;88.84;95315.84;5093857;28;20196;-59
2022/10/30 07:15:21;;;;;;;11.67;6.93;;;;;;;11.57;89.12;95304.16;5093361;28;20365;-59
2022/10/30 07:17:55;;;;;;;13.77;8.50;;;;;;;12.03;97.85;95268.25;5093521;28;20223;-60
2022/10/30 07:20:21;;;;;;;13.90;8.27;;;;;;;12.27;91.29;95304.50;5093079;28;20219;-60
2022/10/30 07:22:47;;;;;;;12.67;8.00;;;;;;;12.27;88.97;95311.34;5093053;28;20238;-61
2022/10/30 07:25:12;;;;;;;15.20;8.37;;;;;;;12.43;87.90;95320.19;5108793;28;20232;-60
2022/10/30 07:27:45;;;;;;;14.77;8.27;;;;;;;12.43;87.12;95324.47;5093066;28;20566;-59
2022/10/30 07:30:13;;;;;;;12.40;8.97;;;;;;;12.52;87.00;95321.97;5093113;28;20222;-60
2022/10/30 07:32:38;;;;;;;17.37;7.93;;;;;;;12.76;84.88;95354.88;5093401;28;20230;-59
2022/10/30 07:35:05;;;;;;;16.53;8.10;;;;;;;12.92;83.28;95369.72;5092903;28;20215;-60
2022/10/30 07:37:30;;;;;;;11.50;6.57;;;;;;;13.39;100.00;95173.31;5093577;28;20588;-62
2022/10/30 07:39:56;;;;;;;14.17;8.47;;;;;;;14.12;100.00;95198.25;5092728;28;20227;-60
2022/10/30 07:42:21;;;;;;;12.70;8.10;;;;;;;14.01;100.00;95223.19;5108615;28;20208;-61
2022/10/30 07:44:47;;;;;;;23.73;14.70;;;;;;;13.96;100.00;95381.25;5092991;28;20203;-61
2022/10/30 07:47:12;;;;;;;18.58;9.05;;;;;;;14.11;100.00;95438.75;5092957;28;20210;-61
2022/10/30 07:49:38;;;;;;;10.77;8.30;;;;;;;14.10;100.00;95442.25;5092681;28;20557;-61
2022/10/30 07:52:03;;;;;;;12.00;8.75;;;;;;;14.18;100.00;95419.41;5092984;28;20646;-59
2022/10/30 07:54:29;;;;;;;11.73;8.80;;;;;;;14.41;98.03;95446.38;5092582;28;20210;-60
2022/10/30 07:56:54;;;;;;;13.85;7.97;;;;;;;14.43;96.93;95457.28;5092855;28;20673;-62
2022/10/30 07:59:20;;;;;;;13.93;8.65;;;;;;;14.56;96.83;95437.38;5092602;28;20253;-61
2022/10/30 08:01:45;;;;;;;15.85;8.38;;;;;;;14.66;95.43;95456.09;5092603;28;20238;-61
2022/10/30 08:04:12;;;;;;;13.10;8.32;;;;;;;14.84;96.18;95434.00;5092515;28;20206;-62
2022/10/30 08:06:38;;;;;;;13.27;8.60;;;;;;;15.07;95.18;95447.28;5092530;28;20195;-62
2022/10/30 08:09:04;;;;;;;10.95;7.00;;;;;;;15.37;94.34;95467.56;5092356;28;20208;-61
2022/10/30 08:11:30;;;;;;;16.75;8.05;;;;;;;15.39;93.39;95470.00;5092511;28;20191;-60
2022/10/30 08:13:55;;;;;;;13.45;8.82;;;;;;;15.76;93.89;95455.47;5092474;28;20257;-62
2022/10/30 08:16:21;;;;;;;9.65;5.50;;;;;;;16.30;100.00;95150.09;5108090;28;20651;-61
2022/10/30 08:18:46;;;;;;;10.35;7.75;;;;;;;16.82;100.00;95383.75;5092149;28;20606;-61
2022/10/30 08:21:12;;;;;;;16.35;8.63;;;;;;;16.81;96.74;95405.25;5092248;28;20211;-60
2022/10/30 08:23:37;;;;;;;11.98;8.07;;;;;;;16.75;91.69;95466.50;5092962;28;20223;-61
2022/10/30 08:26:04;;;;;;;11.82;8.23;;;;;;;17.07;90.18;95490.88;5092285;28;20187;-60
2022/10/30 08:28:30;;;;;;;11.57;8.00;;;;;;;17.30;87.01;95523.66;5092046;28;20196;-61
2022/10/30 08:30:57;;;;;;;11.82;8.38;;;;;;;17.40;86.09;95510.69;5092159;28;20271;-61
2022/10/30 08:33:23;;;;;;;13.30;8.50;;;;;;;17.51;86.19;95501.00;5092131;28;20271;-60
2022/10/30 08:35:50;;;;;;;12.80;8.40;;;;;;;17.64;85.28;95510.88;5092171;28;20278;-60
2022/10/30 08:38:15;;;;;;;13.88;8.90;;;;;;;17.73;84.66;95512.56;5092231;28;20184;-64
2022/10/30 08:40:41;;;;;;;12.55;7.90;;;;;;;17.88;90.32;95369.53;5090561;28;20239;-63
2022/10/30 08:43:07;;;;;;;13.25;7.95;;;;;;;18.25;85.21;95519.25;5092642;28;20189;-63
2022/10/30 08:45:33;;;;;;;11.63;8.50;;;;;;;18.62;83.03;95556.75;5092161;28;20208;-60
2022/10/30 08:48:02;;;;;;;13.45;8.95;;;;;;;18.73;81.98;95557.25;5092237;28;20194;-62
2022/10/30 08:50:28;;;;;;;12.02;8.43;;;;;;;18.58;65.51;95625.00;5091621;28;20196;-60
2022/10/30 08:52:53;;;;;;;14.82;8.60;;;;;;;18.36;64.35;95579.97;5092251;28;20570;-60
2022/10/30 08:55:18;;;;;;;12.05;7.93;;;;;;;18.43;64.41;95575.81;5091988;28;20196;-61
2022/10/30 08:57:44;;;;;;;14.82;9.15;;;;;;;18.36;64.18;95552.44;5091926;28;20184;-59
2022/10/30 09:00:10;;;;;;;13.15;8.77;;;;;;;18.57;65.71;95510.03;5107911;28;20215;-60
2022/10/30 09:02:38;;;;;;;15.02;8.48;;;;;;;18.81;67.47;95467.09;5094574;28;20255;-60
2022/10/30 09:05:05;;;;;;;14.25;8.73;;;;;;;18.83;64.00;95554.53;5094514;28;20192;-60
2022/10/30 09:07:31;;;;;;;16.45;9.27;;;;;;;18.36;64.71;95518.94;5091940;28;20290;-60
2022/10/30 09:09:57;;;;;;;12.23;8.93;;;;;;;18.70;64.19;95528.44;5092385;28;20208;-60
2022/10/30 09:12:22;;;;;;;17.27;9.48;;;;;;;19.13;63.03;95553.94;5107449;28;20196;-60
2022/10/30 09:14:47;;;;;;;12.38;8.88;;;;;;;19.15;62.72;95542.50;5092655;28;20720;-63
2022/10/30 09:17:13;;;;;;;11.20;8.85;;;;;;;19.47;63.26;95534.00;5091927;28;20677;-61
2022/10/30 09:19:38;;;;;;;15.90;9.88;;;;;;;19.80;61.41;95582.00;5092478;28;20678;-60
2022/10/30 09:22:04;;;;;;;11.65;9.35;;;;;;;20.08;61.18;95575.50;5091355;28;20710;-65
2022/10/30 09:24:30;;;;;;;15.10;9.57;;;;;;;20.21;60.45;95593.09;5106986;28;20685;-64
2022/10/30 09:26:55;;;;;;;11.85;9.27;;;;;;;20.26;61.00;95566.78;5091460;28;20184;-59
2022/10/30 09:29:21;;;;;;;12.40;8.73;;;;;;;20.30;59.24;95597.25;5089718;28;20573;-61
2022/10/30 09:31:46;;;;;;;15.80;9.65;;;;;;;20.64;58.70;95609.94;5091164;28;20222;-60
2022/10/30 09:34:12;;;;;;;17.45;10.40;;;;;;;19.98;59.21;95581.81;5091165;28;20282;-60
2022/10/30 09:36:37;;;;;;;14.95;10.00;;;;;;;20.60;58.33;95603.47;5091287;28;20188;-62
2022/10/30 09:39:03;;;;;;;16.35;10.10;;;;;;;20.93;56.76;95641.94;5091008;28;20284;-61
2022/10/30 09:41:28;;;;;;;17.15;10.70;;;;;;;20.53;57.69;95597.34;5091010;28;20622;-60
2022/10/30 09:44:21;;;;;;;15.13;9.68;;;;;;;20.77;57.39;95597.25;5091003;28;20289;-61
2022/10/30 09:47:21;;;;;;;14.55;10.27;;;;;;;20.73;56.88;95601.16;5091067;28;20665;-61
2022/10/30 09:50:28;;;;;;;17.02;9.75;;;;;;;20.70;57.13;95578.25;5090864;28;20625;-61
2022/10/30 09:53:13;;;;;;;18.90;9.95;;;;;;;20.64;57.30;95559.06;5082325;28;20250;-59
2022/10/30 09:56:02;;;;;;;15.85;9.68;;;;;;;20.86;57.37;95560.88;5091234;28;20569;-60
2022/10/30 09:58:49;;;;;;;15.02;9.73;;;;;;;20.87;57.43;95551.31;5090943;28;20249;-60
2022/10/30 10:01:33;;;;;;;15.75;10.02;;;;;;;20.87;57.09;95562.47;5106424;28;20223;-60
2022/10/30 10:04:25;;;;;;;11.75;9.43;;;;;;;21.03;55.62;95590.03;5089499;28;20253;-61
2022/10/30 10:07:01;;;;;;;16.40;9.75;;;;;;;21.48;55.47;95584.06;5090963;28;20310;-59
2022/10/30 10:09:28;;;;;;;15.20;10.15;;;;;;;21.82;54.17;95618.13;5090896;28;20231;-60
2022/10/30 10:11:59;;;;;;;13.95;9.20;;;;;;;22.26;53.11;95642.31;5090897;28;20196;-60
2022/10/30 10:14:33;;;;;;;16.42;9.20;;;;;;;22.60;52.13;95665.19;5090623;28;20226;-61
2022/10/30 10:17:02;;;;;;;15.95;9.27;;;;;;;22.73;51.56;95660.16;5090816;28;20207;-60
2022/10/30 10:19:32;;;;;;;10.27;8.57;;;;;;;22.97;52.34;95620.97;5090454;28;20203;-60
2022/10/30 10:22:02;;;;;;;14.63;7.90;;;;;;;22.80;51.48;95642.91;5090833;28;20666;-65
2022/10/30 10:24:29;;;;;;;12.05;7.47;;;;;;;22.74;50.75;95660.97;5089094;28;20208;-63
2022/10/30 10:27:13;;;;;;;16.20;7.22;;;;;;;21.79;50.89;95612.47;5090414;28;20195;-63
2022/10/30 10:29:50;;;;;;;13.18;8.27;;;;;;;21.94;50.59;95626.31;5090488;28;20262;-64
2022/10/30 10:32:56;;;;;;;9.98;6.05;;;;;;;20.99;52.46;95547.34;5090773;28;20200;-63
2022/10/30 10:35:36;;;;;;;10.30;6.60;;;;;;;21.23;51.44;95569.72;5075077;28;20216;-63
2022/10/30 10:38:01;;;;;;;9.65;6.53;;;;;;;21.64;50.93;95584.75;5106182;28;20685;-60
2022/10/30 10:40:42;;;;;;;8.30;5.88;;;;;;;21.94;50.85;95585.66;5090263;28;20196;-60
2022/10/30 10:43:19;;;;;;;9.00;6.85;;;;;;;21.77;50.73;95591.13;5093481;28;20224;-61
2022/10/30 10:45:54;;;;;;;10.80;6.90;;;;;;;22.32;51.43;95557.91;5093706;28;20202;-63
2022/10/30 10:48:37;;;;;;;10.43;6.85;;;;;;;22.62;50.08;95595.00;5093820;28;20260;-61
2022/10/30 10:51:35;;;;;;;8.30;6.32;;;;;;;22.72;49.82;95606.72;5093691;28;20635;-62
2022/10/30 10:54:23;;;;;;;8.57;5.97;;;;;;;22.92;49.86;95599.16;5087814;28;20337;-61
2022/10/30 10:56:50;;;;;;;12.90;7.05;;;;;;;22.82;49.76;95606.41;5093838;28;20685;-61
2022/10/30 10:59:21;;;;;;;8.75;6.47;;;;;;;23.06;48.82;95617.28;5093580;28;20204;-60
2022/10/30 11:02:16;;;;;;;8.27;6.32;;;;;;;23.14;48.21;95642.31;5093811;28;20287;-59
2022/10/30 11:04:46;;;;;;;11.10;6.60;;;;;;;23.07;48.16;95631.03;5109201;28;20222;-64
2022/10/30 11:07:21;;;;;;;12.13;7.57;;;;;;;23.02;47.83;95639.41;5109280;28;20194;-62
2022/10/30 11:09:51;;;;;;;7.53;5.60;;;;;;;22.88;48.20;95601.31;5093413;28;20207;-60
2022/10/30 11:12:21;;;;;;;6.38;4.88;;;;;;;22.81;47.82;95620.34;5092053;28;20241;-59
2022/10/30 11:14:47;;;;;;;6.47;4.78;;;;;;;22.91;47.28;95633.84;5093241;28;20208;-61
2022/10/30 11:17:23;;;;;;;7.60;4.43;;;;;;;22.58;47.55;95611.91;5093450;28;20195;-60
2022/10/30 11:19:57;;;;;;;6.38;4.28;;;;;;;22.89;47.30;95618.47;5093078;28;20265;-60
2022/10/30 11:22:32;;;;;;;6.93;4.00;;;;;;;22.87;46.82;95622.22;5093469;28;20187;-60
2022/10/30 11:25:17;;;;;;;8.82;3.75;;;;;;;22.45;46.33;95620.25;5092900;28;20245;-61
2022/10/30 11:27:46;;;;;;;6.82;3.75;;;;;;;22.58;46.97;95593.75;5093204;28;20202;-60
2022/10/30 11:30:21;;;;;;;5.85;3.35;;;;;;;22.85;45.92;95637.97;5093115;28;20211;-61
2022/10/30 11:32:46;;;;;;;6.70;3.60;;;;;;;22.74;46.01;95624.66;5093234;28;20195;-64
2022/10/30 11:35:16;;;;;;;5.25;3.53;;;;;;;23.13;45.50;95622.53;5108531;28;20682;-63
2022/10/30 11:37:43;;;;;;;11.25;4.13;;;;;;;23.24;45.54;95622.06;5092907;28;20271;-64